createdAt,value
2019-01-27T12:24:49.135Z,7.40
2019-01-27T12:27:17.664Z,9.20
2019-01-27T12:29:47.555Z,9.73
2019-01-27T12:32:17.062Z,5.00
2019-01-27T12:34:46.179Z,7.67
2019-01-27T12:37:15.737Z,14.90
2019-01-27T12:39:45.184Z,6.97
2019-01-27T12:42:15.176Z,8.90
2019-01-27T12:44:44.198Z,12.17
2019-01-27T12:47:12.780Z,10.27
2019-01-27T12:49:41.419Z,15.37
2019-01-27T12:52:11.149Z,16.70
2019-01-27T12:54:40.427Z,30.67
2019-01-27T12:57:09.335Z,33.83
2019-01-27T12:59:38.660Z,141.70
2019-01-27T13:02:08.546Z,135.93
2019-01-27T13:04:38.155Z,128.67
2019-01-27T13:07:07.535Z,135.93
2019-01-27T13:09:36.979Z,172.17
2019-01-27T13:12:05.464Z,157.78
2019-01-27T13:14:34.047Z,167.97
2019-01-27T13:17:02.531Z,249.30
2019-01-27T13:19:32.091Z,281.77
2019-01-27T13:22:01.536Z,671.75
2019-01-27T13:24:30.087Z,547.20
2019-01-27T13:26:59.580Z,687.08
2019-01-27T13:29:28.383Z,882.57
2019-01-27T13:31:57.658Z,1051.17
2019-01-27T13:34:27.110Z,1249.10
2019-01-27T13:36:55.971Z,1462.53
2019-01-27T13:39:25.096Z,1640.07
2019-01-27T13:41:54.605Z,1935.97
2019-01-27T13:44:24.163Z,568.63
2019-01-27T13:46:53.607Z,328.00
2019-01-27T13:49:22.183Z,146.97
2019-01-27T13:51:50.954Z,105.90
2019-01-27T13:54:20.150Z,34.50
2019-01-27T13:56:49.589Z,26.30
2019-01-27T13:59:19.079Z,34.63
2019-01-27T14:01:47.662Z,78.50
2019-01-27T14:04:17.350Z,61.83
2019-01-27T14:06:46.632Z,54.07
2019-01-27T14:09:16.359Z,29.20
2019-01-27T14:11:45.581Z,36.80
2019-01-27T14:14:15.139Z,33.87
2019-01-27T14:16:44.639Z,22.83
2019-01-27T14:19:14.371Z,28.10
2019-01-27T14:21:43.875Z,37.63
2019-01-27T14:24:13.483Z,39.83
2019-01-27T14:26:43.004Z,36.87
2019-01-27T14:29:12.152Z,39.43
2019-01-27T14:31:41.676Z,66.07
2019-01-27T14:34:11.164Z,43.50
2019-01-27T14:36:41.004Z,55.20
2019-01-27T14:39:10.133Z,127.50
2019-01-27T14:41:38.642Z,90.20
2019-01-27T14:44:08.491Z,111.90
2019-01-27T14:46:37.891Z,107.60
2019-01-27T14:49:07.171Z,125.50
2019-01-27T14:51:36.615Z,137.67
2019-01-27T14:54:05.383Z,119.97
2019-01-27T14:56:34.660Z,144.27
2019-01-27T14:59:03.367Z,128.27
2019-01-27T15:01:32.971Z,127.17
2019-01-27T15:04:02.092Z,124.80
2019-01-27T15:06:31.980Z,130.30
2019-01-27T15:09:01.098Z,125.27
2019-01-27T15:11:30.995Z,116.93
2019-01-27T15:14:00.392Z,117.70
2019-01-27T15:16:29.611Z,104.77
2019-01-27T15:18:59.503Z,107.20
2019-01-27T15:21:28.627Z,96.63
2019-01-27T15:23:58.411Z,104.53
2019-01-27T15:26:28.015Z,93.17
2019-01-27T15:28:57.187Z,104.37
2019-01-27T15:31:25.820Z,93.77
2019-01-27T15:33:54.403Z,97.67
2019-01-27T15:36:23.971Z,94.30
2019-01-27T15:38:53.434Z,99.37
2019-01-27T15:41:22.911Z,87.83
2019-01-27T15:43:51.480Z,82.67
2019-01-27T15:46:20.955Z,88.40
2019-01-27T15:48:50.399Z,82.27
2019-01-27T15:51:18.879Z,91.23
2019-01-27T15:53:47.854Z,64.67
2019-01-27T15:56:17.067Z,73.67
2019-01-27T15:58:45.941Z,83.00
2019-01-27T16:01:15.840Z,74.97
2019-01-27T16:03:45.593Z,72.73
2019-01-27T16:06:15.477Z,72.37
2019-01-27T16:08:44.591Z,70.93
2019-01-27T16:11:14.478Z,77.47
2019-01-27T16:13:43.599Z,68.10
2019-01-27T16:16:12.079Z,65.70
2019-01-27T16:18:41.643Z,60.03
2019-01-27T16:21:11.092Z,63.23
2019-01-27T16:23:41.591Z,67.23
2019-01-27T16:26:11.124Z,68.13
2019-01-27T16:28:40.628Z,55.90
2019-01-27T16:31:28.703Z,64.37
2019-01-27T16:34:00.032Z,58.83
2019-01-27T16:36:28.879Z,49.17
2019-01-27T16:38:58.117Z,44.57
2019-01-27T16:41:26.717Z,50.20
2019-01-27T16:43:56.368Z,47.00
2019-01-27T16:46:25.589Z,45.77
2019-01-27T16:48:54.171Z,46.33
2019-01-27T16:51:22.945Z,41.27
2019-01-27T16:53:52.441Z,39.03
2019-01-27T16:56:21.560Z,39.30
2019-01-27T16:58:51.059Z,36.67
2019-01-27T17:01:20.611Z,36.57
2019-01-27T17:03:50.451Z,44.03
2019-01-27T17:06:19.580Z,36.40
2019-01-27T17:08:48.356Z,34.80
2019-01-27T17:11:18.619Z,33.17
2019-01-27T17:13:47.111Z,37.50
2019-01-27T17:16:16.574Z,31.80
2019-01-27T17:18:46.131Z,27.27
2019-01-27T17:21:15.855Z,28.50
2019-01-27T17:23:45.078Z,32.53
2019-01-27T17:26:14.643Z,28.77
2019-01-27T17:28:44.087Z,30.00
2019-01-27T17:31:13.871Z,35.53
2019-01-27T17:33:43.159Z,28.53
2019-01-27T17:36:12.885Z,29.23
2019-01-27T17:38:42.343Z,32.37
2019-01-27T17:41:11.673Z,31.70
2019-01-27T17:43:41.111Z,25.80
2019-01-27T17:46:11.020Z,23.60
2019-01-27T17:48:40.119Z,24.87
2019-01-27T17:51:09.709Z,18.83
2019-01-27T17:53:41.028Z,27.93
2019-01-27T17:56:09.711Z,20.73
2019-01-27T17:58:41.064Z,26.57
2019-01-27T18:01:24.870Z,23.13
2019-01-27T18:04:01.199Z,18.77
2019-01-27T18:06:32.432Z,22.20
2019-01-27T18:09:10.130Z,21.20
2019-01-27T18:11:41.415Z,26.93
2019-01-27T18:14:11.943Z,24.00
2019-01-27T18:16:40.756Z,24.70
2019-01-27T18:19:10.401Z,15.93
2019-01-27T18:21:39.756Z,24.53
2019-01-27T18:24:09.047Z,25.43
2019-01-27T18:26:41.775Z,20.93
2019-01-27T18:29:11.124Z,18.20
2019-01-27T18:31:40.680Z,20.83
2019-01-27T18:34:10.111Z,25.17
2019-01-27T18:36:39.679Z,17.40
2019-01-27T18:39:09.359Z,21.07
2019-01-27T18:41:38.619Z,14.40
2019-01-27T18:44:08.196Z,19.47
2019-01-27T18:46:37.635Z,23.70
2019-01-27T18:49:07.191Z,18.60
2019-01-27T18:51:36.906Z,17.03
2019-01-27T18:54:08.130Z,13.80
2019-01-27T18:56:42.328Z,13.87
2019-01-27T18:59:30.107Z,13.87
2019-01-27T19:02:01.131Z,12.03
2019-01-27T19:04:35.060Z,12.97
2019-01-27T19:07:09.275Z,15.07
2019-01-27T19:09:42.775Z,14.10
2019-01-27T19:12:30.399Z,15.40
2019-01-27T19:15:01.434Z,13.23
2019-01-27T19:17:35.067Z,10.33
2019-01-27T19:20:06.899Z,12.23
2019-01-27T19:22:38.295Z,13.63
2019-01-27T19:25:09.784Z,8.27
2019-01-27T19:27:41.391Z,9.37
2019-01-27T19:30:31.336Z,12.13
2019-01-27T19:33:08.579Z,9.80
2019-01-27T19:35:58.096Z,10.07
2019-01-27T19:38:41.828Z,9.23
2019-01-27T19:41:13.432Z,9.13
2019-01-27T19:44:00.299Z,9.87
2019-01-27T19:46:31.887Z,8.20
2019-01-27T19:49:15.311Z,7.90
2019-01-27T19:52:02.810Z,14.60
2019-01-27T19:54:50.919Z,9.23
2019-01-27T19:57:33.891Z,8.37
2019-01-27T20:00:04.887Z,10.13
2019-01-27T20:02:35.531Z,6.70
2019-01-27T20:05:06.987Z,7.10
2019-01-27T20:07:47.333Z,10.17
2019-01-27T20:10:34.523Z,9.10
2019-01-27T20:13:14.099Z,6.33
2019-01-27T20:15:44.918Z,7.30
2019-01-27T20:18:22.163Z,6.83
2019-01-27T20:20:55.989Z,9.07
2019-01-27T20:23:38.847Z,7.93
2019-01-27T20:26:12.656Z,6.43
2019-01-27T20:28:50.252Z,9.57
2019-01-27T20:31:32.576Z,6.30
2019-01-27T20:34:09.940Z,6.40
2019-01-27T20:36:50.107Z,6.13
2019-01-27T20:39:29.821Z,8.27
2019-01-27T20:42:03.568Z,6.23
2019-01-27T20:44:34.787Z,11.23
2019-01-27T20:47:12.380Z,11.70
2019-01-27T20:49:44.134Z,7.20
2019-01-27T20:52:31.815Z,7.80
2019-01-27T20:55:20.008Z,13.53
2019-01-27T20:57:51.268Z,7.37
2019-01-27T21:00:28.934Z,7.37
2019-01-27T21:03:14.434Z,6.50
2019-01-27T21:05:48.435Z,7.23
2019-01-27T21:08:21.918Z,7.00
2019-01-27T21:11:09.002Z,9.53
2019-01-27T21:13:42.207Z,5.97
2019-01-27T21:16:29.971Z,6.80
2019-01-27T21:19:01.183Z,5.77
2019-01-27T21:21:31.027Z,5.80
2019-01-27T21:24:00.297Z,6.27
2019-01-27T21:26:28.806Z,4.87
2019-01-27T21:28:58.250Z,5.00
2019-01-27T21:31:28.132Z,4.33
2019-01-27T21:33:57.243Z,5.77
2019-01-27T21:36:26.797Z,5.40
2019-01-27T21:38:55.610Z,5.13
2019-01-27T21:41:24.752Z,5.20
2019-01-27T21:43:54.266Z,4.50
2019-01-27T21:46:23.745Z,3.90
2019-01-27T21:48:52.259Z,4.00
2019-01-27T21:51:20.803Z,3.60
2019-01-27T21:53:49.315Z,4.70
2019-01-27T21:56:18.787Z,5.17
2019-01-27T21:58:48.328Z,4.40
2019-01-27T22:01:16.781Z,4.77
2019-01-27T22:03:46.594Z,3.67
2019-01-27T22:06:22.099Z,3.47
2019-01-27T22:08:49.874Z,3.73
2019-01-27T22:11:16.475Z,6.67
2019-01-27T22:13:42.913Z,6.20
2019-01-27T22:16:09.500Z,5.97
2019-01-27T22:18:35.911Z,5.47
2019-01-27T22:21:02.669Z,6.40
2019-01-27T22:23:29.081Z,5.07
2019-01-27T22:25:56.582Z,4.57
2019-01-27T22:28:23.040Z,5.40
2019-01-27T22:30:49.455Z,5.50
2019-01-27T22:33:15.910Z,4.10
2019-01-27T22:35:42.697Z,3.80
2019-01-27T22:38:09.103Z,4.70
2019-01-27T22:40:35.594Z,4.07
2019-01-27T22:43:02.009Z,4.73
2019-01-27T22:45:28.707Z,4.50
2019-01-27T22:47:55.191Z,4.37
2019-01-27T22:50:21.605Z,3.90
2019-01-27T22:52:48.327Z,4.43
2019-01-27T22:55:14.749Z,4.23
2019-01-27T22:57:41.162Z,3.03
2019-01-27T23:00:09.516Z,3.57
2019-01-27T23:02:35.943Z,3.20
2019-01-27T23:05:04.875Z,4.13
2019-01-27T23:07:31.637Z,3.20
2019-01-27T23:09:58.355Z,3.40
2019-01-27T23:12:24.799Z,3.60
2019-01-27T23:14:51.217Z,2.70
2019-01-27T23:17:17.666Z,3.37
2019-01-27T23:19:44.118Z,2.70
2019-01-27T23:22:10.537Z,3.20
2019-01-27T23:24:37.291Z,2.43
2019-01-27T23:27:03.723Z,4.80
2019-01-27T23:29:30.149Z,2.63
2019-01-27T23:31:56.559Z,2.67
2019-01-27T23:34:23.003Z,2.83
2019-01-27T23:36:49.441Z,2.10
2019-01-27T23:39:15.882Z,2.50
2019-01-27T23:41:42.622Z,3.03
2019-01-27T23:44:09.032Z,2.00
2019-01-27T23:46:35.479Z,2.40
2019-01-27T23:49:01.925Z,2.40
2019-01-27T23:51:28.335Z,2.20
2019-01-27T23:53:54.786Z,2.90
2019-01-27T23:56:21.490Z,2.80
2019-01-27T23:58:47.936Z,2.43
